Time;durP1;ratioP1;P1;durP2;ratioP2;P2;SDS_P1;SDS_P2;PMS_P1;PMS_P2;Temp;Humidity;BMP_temperature;BMP_pressure;BME280_temperature;BME280_humidity;BME280_pressure;Samples;Min_cycle;Max_cycle;Signal;HPM_P1;HPM_P2
2022/09/03 00:00:09;;;;;;;3.15;2.45;;;;;;;18.07;50.82;101019.22;10459820;28;20091;-71
2022/09/03 00:05:38;;;;;;;6.95;2.70;;;;;;;18.02;50.77;101019.13;10460917;28;20396;-72
2022/09/03 00:10:50;;;;;;;2.65;2.45;;;;;;;17.95;51.23;101004.72;10460649;28;20021;-71
2022/09/03 00:15:52;;;;;;;12.80;2.55;;;;;;;17.90;51.43;100994.53;10460761;28;20041;-71
2022/09/03 00:20:58;;;;;;;10.30;1.88;;;;;;;17.89;51.30;100995.56;10459093;28;20035;-71
2022/09/03 00:26:11;;;;;;;2.83;2.63;;;;;;;17.89;52.05;100996.41;10458964;28;20033;-71
2022/09/03 00:31:25;;;;;;;5.88;2.65;;;;;;;17.99;51.52;100997.69;10459805;28;20262;-71
2022/09/03 00:36:41;;;;;;;2.47;2.28;;;;;;;18.01;51.39;100993.63;10459666;28;20032;-71
2022/09/03 00:42:23;;;;;;;2.25;2.15;;;;;;;18.04;51.74;100997.78;10459997;28;20031;-71
2022/09/03 00:47:48;;;;;;;4.30;2.55;;;;;;;18.05;51.40;101004.94;10446923;28;20049;-71
2022/09/03 00:53:46;;;;;;;2.72;2.35;;;;;;;18.03;52.16;100996.13;10459006;28;20522;-71
2022/09/03 00:59:18;;;;;;;6.25;1.98;;;;;;;18.08;51.57;101002.53;10413475;28;20044;-71
2022/09/03 01:04:39;;;;;;;2.22;1.83;;;;;;;18.05;51.57;100997.53;10458055;28;20067;-71
2022/09/03 01:09:51;;;;;;;2.50;1.67;;;;;;;18.00;52.04;100999.38;10443146;28;20039;-71
2022/09/03 01:15:06;;;;;;;3.38;2.33;;;;;;;17.94;52.53;101001.16;10441910;28;20527;-71
2022/09/03 01:20:19;;;;;;;3.67;2.63;;;;;;;17.94;52.34;100997.59;10457820;28;20045;-72
2022/09/03 01:25:30;;;;;;;2.03;1.92;;;;;;;17.95;52.10;100999.25;10457345;28;20380;-71
2022/09/03 01:30:33;;;;;;;1.83;1.70;;;;;;;17.91;52.90;100998.09;10457181;28;20453;-71
2022/09/03 01:35:43;;;;;;;2.00;1.85;;;;;;;17.94;52.54;101003.06;10456298;28;20032;-71
2022/09/03 01:40:49;;;;;;;2.08;1.75;;;;;;;17.94;52.43;101008.56;10457945;28;20063;-71
2022/09/03 01:46:00;;;;;;;2.53;2.42;;;;;;;17.89;52.10;100992.84;10456570;28;20027;-71
2022/09/03 01:51:21;;;;;;;2.08;1.92;;;;;;;17.89;52.01;101001.88;10456924;28;20079;-71
2022/09/03 01:56:35;;;;;;;6.90;2.85;;;;;;;17.76;52.59;100988.44;10456295;28;20056;-71
2022/09/03 02:01:40;;;;;;;2.85;2.38;;;;;;;17.71;52.51;100998.44;10455765;28;20036;-71
2022/09/03 02:06:41;;;;;;;6.95;2.13;;;;;;;17.59;52.80;100993.03;10456034;28;20033;-71
2022/09/03 02:11:41;;;;;;;2.92;2.67;;;;;;;17.50;52.98;100999.94;10464030;28;20469;-71
2022/09/03 02:16:43;;;;;;;1.98;1.88;;;;;;;17.37;53.67;100999.13;10431796;28;20201;-71
2022/09/03 02:21:50;;;;;;;2.70;2.50;;;;;;;17.27;53.65;100989.88;10447274;28;20110;-71
2022/09/03 02:26:50;;;;;;;16.30;2.72;;;;;;;17.17;54.74;100993.22;10463650;28;20111;-71
2022/09/03 02:31:50;;;;;;;7.75;3.35;;;;;;;17.11;53.51;100992.25;10447100;28;20128;-72
2022/09/03 02:36:51;;;;;;;3.05;2.83;;;;;;;16.95;54.44;100985.59;10463597;28;20492;-71
2022/09/03 02:41:54;;;;;;;2.67;2.47;;;;;;;16.80;55.77;100981.66;10465174;28;20061;-71
2022/09/03 02:46:55;;;;;;;2.97;2.22;;;;;;;16.79;55.63;100991.78;10446059;28;20041;-73
2022/09/03 02:52:08;;;;;;;3.30;2.38;;;;;;;16.77;54.77;100984.88;10464573;28;20029;-72
2022/09/03 02:57:11;;;;;;;3.80;2.95;;;;;;;16.67;55.49;100985.44;10462561;28;20037;-73
2022/09/03 03:02:12;;;;;;;2.55;2.35;;;;;;;16.59;56.44;100989.34;10447332;28;20111;-73
2022/09/03 03:07:12;;;;;;;5.53;2.67;;;;;;;16.60;55.50;100981.97;10461752;28;20051;-73
2022/09/03 03:12:16;;;;;;;4.45;2.47;;;;;;;16.58;56.18;100984.09;10462170;28;20033;-73
2022/09/03 03:17:20;;;;;;;4.68;3.75;;;;;;;16.53;56.21;100987.56;10462161;28;20049;-73
2022/09/03 03:22:20;;;;;;;3.45;2.67;;;;;;;16.51;56.24;100985.03;10461620;28;20063;-73
2022/09/03 03:27:21;;;;;;;3.92;2.83;;;;;;;16.43;56.90;100982.66;10461565;28;20036;-73
2022/09/03 03:32:25;;;;;;;4.00;2.78;;;;;;;16.38;56.83;100987.16;10477884;28;20037;-73
2022/09/03 03:37:26;;;;;;;4.90;2.67;;;;;;;16.35;56.53;100996.66;10460529;28;20036;-73
2022/09/03 03:42:26;;;;;;;3.53;2.55;;;;;;;16.43;56.45;100996.31;10462141;28;20036;-73
2022/09/03 03:47:29;;;;;;;2.70;2.50;;;;;;;16.47;56.81;100989.31;10460472;28;20123;-72
2022/09/03 03:52:30;;;;;;;2.90;2.70;;;;;;;16.55;56.89;100990.03;10460025;28;20409;-73
2022/09/03 03:57:31;;;;;;;2.70;2.50;;;;;;;16.54;57.39;100989.22;10428337;28;20033;-73
2022/09/03 04:02:32;;;;;;;8.38;3.55;;;;;;;16.56;57.35;100984.34;10463037;28;20063;-73
2022/09/03 04:07:33;;;;;;;11.38;2.38;;;;;;;16.55;57.71;100996.34;10461251;28;20033;-73
2022/09/03 04:12:34;;;;;;;2.67;2.47;;;;;;;16.58;57.20;100984.94;10443387;28;20044;-73
2022/09/03 04:17:38;;;;;;;3.75;3.15;;;;;;;16.59;56.75;100992.09;10458897;28;20071;-73
2022/09/03 04:22:42;;;;;;;2.72;2.53;;;;;;;16.50;57.34;100983.38;10460616;28;20052;-73
2022/09/03 04:27:46;;;;;;;2.35;2.15;;;;;;;16.45;57.71;100979.69;10442059;28;20029;-73
2022/09/03 04:32:53;;;;;;;3.70;2.80;;;;;;;16.34;58.29;100989.53;10458576;28;20504;-73
2022/09/03 04:37:57;;;;;;;2.40;2.20;;;;;;;16.24;58.10;100984.63;10444947;28;20489;-73
2022/09/03 04:43:00;;;;;;;9.05;3.50;;;;;;;16.17;58.54;100983.88;10462017;28;20049;-73
2022/09/03 04:48:03;;;;;;;4.68;3.28;;;;;;;16.11;59.08;100986.69;10459786;28;20041;-73
2022/09/03 04:53:09;;;;;;;3.33;2.80;;;;;;;16.02;58.79;100986.22;10459021;28;20036;-73
2022/09/03 04:58:10;;;;;;;2.67;2.47;;;;;;;15.92;59.04;100983.19;10427072;28;20035;-73
2022/09/03 05:03:11;;;;;;;3.85;2.88;;;;;;;15.81;59.64;100987.53;10459530;28;20432;-73
2022/09/03 05:08:12;;;;;;;18.23;3.28;;;;;;;15.75;60.22;100988.44;10458846;28;20471;-73
2022/09/03 05:13:12;;;;;;;2.97;2.78;;;;;;;15.74;59.26;100989.53;10456725;28;20040;-73
2022/09/03 05:18:13;;;;;;;3.45;2.45;;;;;;;15.70;59.13;100991.06;10457268;28;20437;-73
2022/09/03 05:23:23;;;;;;;4.45;3.28;;;;;;;15.68;59.47;100996.72;10441202;28;20033;-73
2022/09/03 05:28:29;;;;;;;5.55;3.30;;;;;;;15.70;60.29;101004.69;10457504;28;20053;-73
2022/09/03 05:33:33;;;;;;;5.95;2.78;;;;;;;15.67;60.96;100996.97;10459831;28;20085;-73
2022/09/03 05:38:33;;;;;;;3.05;2.83;;;;;;;15.72;60.80;100988.91;10426725;28;20033;-73
2022/09/03 05:43:34;;;;;;;5.15;2.90;;;;;;;15.74;60.62;100984.06;10457426;28;20040;-73
2022/09/03 05:48:36;;;;;;;6.57;3.22;;;;;;;15.78;60.52;100990.72;10455674;28;20025;-73
2022/09/03 05:53:38;;;;;;;4.00;3.10;;;;;;;15.95;59.87;100997.22;10456769;28;20082;-73
2022/09/03 05:58:42;;;;;;;3.22;2.92;;;;;;;16.69;59.17;100992.34;10455457;28;20029;-73
2022/09/03 06:03:43;;;;;;;10.68;3.60;;;;;;;17.29;57.20;100994.00;10455911;28;20044;-73
2022/09/03 06:08:44;;;;;;;6.45;2.83;;;;;;;17.94;55.17;100992.13;10455798;28;20484;-73
2022/09/03 06:13:44;;;;;;;9.07;2.70;;;;;;;18.56;53.75;101000.38;10456884;28;20040;-73
2022/09/03 06:18:45;;;;;;;4.85;3.13;;;;;;;19.03;51.86;101005.56;10454990;28;20049;-73
2022/09/03 06:23:52;;;;;;;3.13;2.40;;;;;;;19.51;50.48;101012.28;10456681;28;20037;-73
2022/09/03 06:28:53;;;;;;;9.90;2.38;;;;;;;19.80;49.35;101014.88;10457063;28;20033;-73
2022/09/03 06:33:54;;;;;;;5.28;2.67;;;;;;;19.97;48.69;101010.97;10454630;28;20124;-72
2022/09/03 06:38:55;;;;;;;3.13;2.92;;;;;;;20.49;47.48;101004.06;10456256;28;20524;-72
2022/09/03 06:44:04;;;;;;;4.53;3.10;;;;;;;21.01;46.89;101008.94;10438569;28;20040;-72
2022/09/03 06:49:04;;;;;;;5.18;2.97;;;;;;;21.43;46.08;101007.28;10438930;28;20037;-72
2022/09/03 06:54:06;;;;;;;3.53;3.13;;;;;;;21.74;44.41;101011.03;10474015;28;20074;-75
2022/09/03 06:59:11;;;;;;;4.75;3.30;;;;;;;21.85;44.55;101020.16;10463828;28;20029;-75
2022/09/03 07:04:14;;;;;;;4.63;2.67;;;;;;;22.24;44.54;101020.59;10462392;28;20128;-72
2022/09/03 07:09:17;;;;;;;2.47;2.30;;;;;;;22.70;43.18;101012.34;10462164;28;20048;-74
2022/09/03 07:14:18;;;;;;;3.72;2.75;;;;;;;22.90;43.09;101019.81;10463435;28;20377;-73
2022/09/03 07:19:18;;;;;;;4.00;2.85;;;;;;;22.74;42.15;101022.56;10461142;28;20053;-74
2022/09/03 07:24:20;;;;;;;4.57;3.33;;;;;;;22.71;41.80;101017.59;10462306;28;20503;-74
2022/09/03 07:29:21;;;;;;;2.78;2.38;;;;;;;22.95;42.30;101022.59;10461551;28;20481;-74
2022/09/03 07:34:25;;;;;;;7.78;3.20;;;;;;;23.01;41.51;101013.22;10463145;28;20128;-74
2022/09/03 07:39:26;;;;;;;2.85;2.65;;;;;;;23.50;42.13;101018.06;10463810;28;20460;-74
2022/09/03 07:44:27;;;;;;;2.47;2.28;;;;;;;23.94;41.09;101013.78;10446110;28;20162;-74
2022/09/03 07:49:28;;;;;;;2.97;2.72;;;;;;;24.54;40.81;101022.84;10462840;28;20040;-74
2022/09/03 07:54:29;;;;;;;5.35;2.75;;;;;;;24.70;39.96;101027.16;10478707;28;20037;-74
2022/09/03 07:59:30;;;;;;;6.78;2.33;;;;;;;24.88;38.86;101027.56;10444545;28;20045;-74
2022/09/03 08:04:32;;;;;;;4.80;2.90;;;;;;;25.03;38.18;101024.66;10459963;28;20033;-75
2022/09/03 08:09:33;;;;;;;3.78;2.88;;;;;;;25.32;38.42;101021.88;10444260;28;20044;-75
2022/09/03 08:14:33;;;;;;;4.90;3.13;;;;;;;25.72;38.90;101042.78;10459647;28;20087;-73
2022/09/03 08:19:34;;;;;;;3.08;2.85;;;;;;;26.18;37.21;101035.84;10368098;28;20081;-74
2022/09/03 08:24:35;;;;;;;2.50;2.17;;;;;;;26.50;37.84;101040.66;10378556;28;20482;-74
2022/09/03 08:29:36;;;;;;;16.00;3.03;;;;;;;26.62;37.98;101029.94;10377208;28;20037;-74
2022/09/03 08:34:37;;;;;;;3.30;2.60;;;;;;;25.61;36.97;101045.97;10377241;28;20092;-73
2022/09/03 08:39:38;;;;;;;3.28;2.97;;;;;;;25.91;37.43;101039.25;10346052;28;20037;-74
2022/09/03 08:44:54;;;;;;;2.72;2.53;;;;;;;26.29;36.41;101037.34;10377897;28;20044;-74
2022/09/03 08:50:24;;;;;;;3.03;2.70;;;;;;;26.33;35.94;101037.56;10360081;28;20038;-73
2022/09/03 08:55:30;;;;;;;4.05;3.28;;;;;;;27.03;36.77;101031.19;10370155;28;20100;-73
2022/09/03 09:00:52;;;;;;;3.53;3.22;;;;;;;27.40;35.64;101033.03;10359836;28;20037;-73
2022/09/03 09:06:21;;;;;;;3.47;2.55;;;;;;;27.56;35.68;101039.13;10374969;28;20061;-80
2022/09/03 09:11:27;;;;;;;3.55;2.60;;;;;;;27.73;34.94;101044.91;10375155;28;20423;-79
2022/09/03 09:17:01;;;;;;;4.28;2.65;;;;;;;27.94;34.70;101045.31;10393682;28;20045;-75
2022/09/03 09:22:04;;;;;;;3.03;2.53;;;;;;;28.12;33.60;101049.09;10443023;28;20431;-75
2022/09/03 09:27:05;;;;;;;2.75;2.50;;;;;;;28.15;33.79;101056.03;10456946;28;20120;-73
2022/09/03 09:32:07;;;;;;;4.38;3.10;;;;;;;28.39;34.40;101056.56;10456485;28;20036;-75
2022/09/03 09:37:12;;;;;;;5.90;4.13;;;;;;;28.55;33.89;101048.69;10473097;28;20040;-75
2022/09/03 09:42:13;;;;;;;2.63;2.50;;;;;;;28.61;33.21;101041.88;10458541;28;20025;-75
2022/09/03 09:53:21;;;;;;;2.85;2.65;;;;;;;28.64;33.53;101041.25;10457206;28;20464;-75
2022/09/03 10:04:37;;;;;;;2.78;2.63;;;;;;;28.85;32.10;101041.56;10416898;28;20033;-78
2022/09/03 10:10:00;;;;;;;3.67;2.42;;;;;;;29.01;33.25;101036.44;10456406;28;20033;-79
2022/09/03 10:16:38;;;;;;;;;;;;;;;;;;;;;
2022/09/03 10:22:45;;;;;;;4.13;2.85;;;;;;;29.99;31.45;101038.16;10447126;28;20041;-80
2022/09/03 10:27:51;;;;;;;13.52;3.17;;;;;;;30.07;31.10;101040.16;10451944;28;20033;-77
2022/09/03 10:33:11;;;;;;;4.03;2.47;;;;;;;30.11;30.77;101029.16;10431178;28;20389;-77
2022/09/03 10:38:31;;;;;;;3.55;3.20;;;;;;;30.15;32.56;101034.91;10446470;28;20036;-74
2022/09/03 10:44:18;;;;;;;2.63;2.40;;;;;;;30.61;31.59;101031.50;10448622;28;20372;-74
2022/09/03 10:55:48;;;;;;;2.53;2.35;;;;;;;31.21;31.27;101022.22;10435866;28;20048;-74
2022/09/03 11:00:57;;;;;;;2.45;2.20;;;;;;;31.33;32.00;101029.91;10447302;28;20025;-75
2022/09/03 11:06:26;;;;;;;5.00;3.08;;;;;;;31.39;30.05;101030.56;10446415;28;20029;-74
2022/09/03 11:11:35;;;;;;;2.30;2.20;;;;;;;31.67;30.81;101030.94;10432014;28;20487;-74
2022/09/03 11:28:56;;;;;;;2.72;2.53;;;;;;;32.10;31.50;101027.91;10267841;28;20446;-74
2022/09/03 11:34:21;;;;;;;2.50;2.30;;;;;;;32.24;30.13;101033.22;10418786;28;20128;-74
2022/09/03 11:40:05;;;;;;;4.68;2.45;;;;;;;32.13;28.33;101026.38;10445740;28;20052;-79
2022/09/03 11:45:35;;;;;;;2.28;2.15;;;;;;;32.27;27.58;101026.13;10445965;28;20076;-81
2022/09/03 12:21:20;;;;;;;7.80;2.17;;;;;;;32.05;28.62;101011.28;10328285;28;20454;-79
2022/09/03 12:27:10;;;;;;;8.35;2.65;;;;;;;31.64;26.32;101012.00;10335306;28;20053;-80
2022/09/03 12:39:06;;;;;;;2.22;2.13;;;;;;;31.28;28.14;101008.53;10376397;28;20038;-80
2022/09/03 12:51:35;;;;;;;7.75;3.30;;;;;;;31.68;28.05;101002.59;10257687;28;20519;-80
2022/09/03 13:04:18;;;;;;;5.57;3.08;;;;;;;31.66;28.79;101001.31;10256704;29;20043;-78
2022/09/03 13:10:55;;;;;;;4.95;3.20;;;;;;;31.43;27.97;100992.34;10215327;29;20122;-79
2022/09/03 14:21:25;;;;;;;9.40;2.72;;;;;;;30.64;28.58;100988.94;10465468;28;20076;-77
2022/09/03 14:26:35;;;;;;;3.65;3.17;;;;;;;30.79;28.83;100976.41;10439677;28;20053;-76
2022/09/03 14:31:55;;;;;;;3.30;2.85;;;;;;;30.38;28.46;100983.38;10424064;28;20045;-75
2022/09/03 14:37:34;;;;;;;2.70;2.50;;;;;;;30.08;29.58;100985.13;10457144;28;20396;-76
2022/09/03 14:43:02;;;;;;;2.50;2.40;;;;;;;30.11;28.87;100981.69;10438471;28;20412;-76
2022/09/03 14:48:21;;;;;;;4.13;2.65;;;;;;;29.76;30.03;100984.44;10425914;28;20049;-75
2022/09/03 14:54:06;;;;;;;3.25;2.95;;;;;;;29.40;30.03;100991.03;10455980;28;20035;-75
2022/09/03 14:59:21;;;;;;;14.25;3.80;;;;;;;28.66;30.77;100985.19;10455760;28;20380;-74
2022/09/03 15:05:04;;;;;;;3.60;3.30;;;;;;;28.19;31.00;100988.25;10439207;28;20079;-74
2022/09/03 15:10:19;;;;;;;15.45;2.35;;;;;;;27.85;31.53;100980.38;10441431;28;20028;-74
2022/09/03 15:15:23;;;;;;;3.40;2.47;;;;;;;27.72;32.09;100981.19;10424519;28;20116;-74
2022/09/03 15:21:05;;;;;;;5.93;3.33;;;;;;;27.43;32.55;100981.53;10444940;28;20388;-74
2022/09/03 15:26:28;;;;;;;4.78;2.45;;;;;;;27.44;32.71;100988.72;10447295;28;20251;-74
2022/09/03 15:31:49;;;;;;;7.13;2.85;;;;;;;27.20;32.58;100988.94;10462583;28;20029;-74
2022/09/03 15:36:53;;;;;;;4.35;2.92;;;;;;;27.10;33.06;100993.53;10444985;28;20467;-74
2022/09/03 15:42:13;;;;;;;6.13;2.90;;;;;;;26.84;33.57;100992.34;10463358;28;20032;-74
2022/09/03 15:47:53;;;;;;;2.30;2.17;;;;;;;26.83;33.23;100990.69;10443363;28;20084;-74
2022/09/03 15:53:14;;;;;;;4.43;2.83;;;;;;;26.83;33.31;100985.13;10433322;28;20152;-74
2022/09/03 15:58:35;;;;;;;5.50;3.03;;;;;;;26.78;33.47;100990.78;10428221;28;20354;-74
2022/09/03 16:03:44;;;;;;;6.18;3.08;;;;;;;26.59;33.34;100988.88;10443930;28;20037;-74
2022/09/03 16:08:58;;;;;;;2.13;2.03;;;;;;;26.50;33.68;100993.47;10461027;28;20029;-74
2022/09/03 16:14:15;;;;;;;2.72;2.53;;;;;;;26.38;33.62;100995.84;10427473;28;20025;-74
2022/09/03 16:19:34;;;;;;;5.63;3.45;;;;;;;26.35;34.17;100993.66;10426805;28;20029;-74
2022/09/03 16:24:46;;;;;;;3.45;3.05;;;;;;;26.29;34.26;100984.59;10461566;28;20118;-74
2022/09/03 16:30:01;;;;;;;2.45;2.25;;;;;;;26.17;34.50;100992.56;10442415;28;20116;-74
2022/09/03 16:35:33;;;;;;;;;;;;;;;;;;;;;
2022/09/03 16:46:34;;;;;;;9.45;2.38;;;;;;;26.00;34.79;100989.47;10406803;28;20050;-74
2022/09/03 16:51:51;;;;;;;2.20;2.08;;;;;;;25.83;35.26;100993.56;10356948;28;20041;-73
2022/09/03 16:57:25;;;;;;;4.07;2.53;;;;;;;25.83;35.24;100988.03;10378609;28;20060;-74
2022/09/03 17:02:59;;;;;;;3.97;2.63;;;;;;;25.76;35.26;101001.41;10350658;28;20125;-74
2022/09/03 17:08:40;;;;;;;2.45;2.22;;;;;;;25.67;35.73;101001.22;10372546;28;20441;-74
2022/09/03 17:19:39;;;;;;;8.48;2.35;;;;;;;25.61;35.99;101016.28;10404640;28;20409;-74
2022/09/03 17:25:19;;;;;;;9.20;3.92;;;;;;;25.50;36.51;101018.38;10417699;28;20035;-74
2022/09/03 17:30:41;;;;;;;2.90;2.67;;;;;;;25.39;37.14;101027.06;10401603;28;20450;-74
2022/09/03 17:35:53;;;;;;;3.08;2.78;;;;;;;25.32;36.94;101027.44;10370486;28;20037;-74
2022/09/03 17:41:24;;;;;;;2.92;2.25;;;;;;;25.24;37.59;101030.84;10399577;28;20029;-74
2022/09/03 17:47:05;;;;;;;3.80;2.63;;;;;;;25.10;38.01;101036.22;10422503;28;20045;-74
2022/09/03 17:52:20;;;;;;;4.20;2.67;;;;;;;24.99;38.31;101042.97;10457779;28;20134;-74
2022/09/03 17:57:29;;;;;;;4.00;2.90;;;;;;;24.85;38.70;101041.97;10424440;28;20028;-73
2022/09/03 18:03:00;;;;;;;;;;;;;;;;;;;;;
2022/09/03 20:13:19;;;;;;;2.67;2.47;;;;;;;22.51;40.96;101180.41;10388577;28;20042;-74
2022/09/03 20:18:50;;;;;;;3.92;3.08;;;;;;;22.33;40.98;101183.66;10443604;28;20025;-74
2022/09/03 20:24:23;;;;;;;9.75;3.13;;;;;;;22.12;41.43;101175.25;10463844;28;20040;-74
2022/09/03 20:29:31;;;;;;;3.85;3.08;;;;;;;21.85;41.39;101186.38;10446233;28;20064;-74
2022/09/03 20:35:10;;;;;;;5.38;4.93;;;;;;;21.58;41.61;101175.47;10460521;28;20025;-74
2022/09/03 20:46:41;;;;;;;3.50;3.20;;;;;;;21.03;43.00;101191.22;10374249;28;20496;-74
2022/09/03 20:52:24;;;;;;;5.15;4.32;;;;;;;20.84;43.53;101187.16;10378471;28;20045;-74
2022/09/03 20:57:43;;;;;;;5.05;4.55;;;;;;;20.70;43.47;101189.47;10418193;28;20032;-74
2022/09/03 21:02:49;;;;;;;4.40;4.03;;;;;;;20.59;43.55;101184.97;10385300;28;20129;-74
2022/09/03 21:08:30;;;;;;;8.45;5.18;;;;;;;20.51;44.24;101191.72;10418547;28;20058;-74
2022/09/03 21:14:18;;;;;;;15.00;3.83;;;;;;;20.36;44.26;101197.88;10399949;28;20091;-78
2022/09/03 21:20:14;;;;;;;5.38;4.47;;;;;;;20.22;46.98;101207.56;10379528;28;20460;-77
2022/09/03 21:25:46;;;;;;;10.73;5.40;;;;;;;20.22;45.66;101213.06;10417147;28;20049;-76
2022/09/03 21:49:09;;;;;;;10.70;4.88;;;;;;;19.89;46.69;101209.31;10306668;28;20112;-77
2022/09/03 21:55:21;;;;;;;10.75;5.25;;;;;;;19.76;46.50;101212.41;10324396;28;20050;-77
2022/09/03 22:00:31;;;;;;;5.05;4.55;;;;;;;19.59;46.46;101217.03;10324881;28;20034;-77
2022/09/03 22:06:18;;;;;;;5.95;4.88;;;;;;;19.48;46.89;101214.13;10314619;28;20081;-77
2022/09/03 22:12:09;;;;;;;4.27;3.83;;;;;;;19.37;46.75;101220.53;10249771;29;20050;-77
2022/09/03 22:17:21;;;;;;;6.00;4.25;;;;;;;19.30;46.64;101219.84;10250800;29;20086;-74
2022/09/03 22:22:42;;;;;;;15.40;4.53;;;;;;;19.18;47.44;101214.44;10329791;28;20045;-75
2022/09/03 22:28:12;;;;;;;7.63;5.88;;;;;;;19.15;48.60;101234.16;10401914;28;20080;-75
2022/09/03 22:34:15;;;;;;;5.03;4.43;;;;;;;19.10;48.26;101225.81;10424210;28;20159;-74
2022/09/03 22:45:56;;;;;;;12.48;5.25;;;;;;;19.21;48.70;101229.59;10466237;28;20508;-75
2022/09/03 22:51:07;;;;;;;11.52;4.60;;;;;;;19.18;47.96;101239.16;10466887;28;20052;-76
2022/09/03 22:56:31;;;;;;;;;;;;;;;;;;;;;
2022/09/03 23:07:17;;;;;;;8.82;5.82;;;;;;;19.04;48.57;101235.84;10180281;29;20052;-75
2022/09/03 23:12:47;;;;;;;8.45;7.57;;;;;;;18.98;48.92;101252.47;10314328;28;20077;-74
2022/09/03 23:18:14;;;;;;;12.57;6.75;;;;;;;18.86;49.37;101251.66;10321585;28;20430;-74
2022/09/03 23:23:55;;;;;;;6.78;6.05;;;;;;;18.76;49.18;101247.69;10320677;28;20039;-74
2022/09/03 23:35:02;;;;;;;8.18;6.00;;;;;;;18.61;49.42;101258.28;10307673;28;20042;-74
2022/09/03 23:40:37;;;;;;;8.85;7.85;;;;;;;18.55;49.89;101257.34;10375592;28;20080;-74
2022/09/03 23:45:42;;;;;;;9.93;7.93;;;;;;;18.52;50.00;101262.47;10435504;28;20033;-74
2022/09/03 23:51:33;;;;;;;7.63;6.88;;;;;;;18.42;50.74;101259.53;10444072;28;20485;-74
